Time;durP1;ratioP1;P1;durP2;ratioP2;P2;SDS_P1;SDS_P2;PMS_P1;PMS_P2;Temp;Humidity;BMP_temperature;BMP_pressure;BME280_temperature;BME280_humidity;BME280_pressure;Samples;Min_cycle;Max_cycle;Signal;HPM_P1;HPM_P2
2023/01/07 00:01:54;;;;;;;743.23;303.63;;;;;;;;;;4994767;28;21856;-53
2023/01/07 00:04:22;;;;;;;697.20;284.63;;;;;;;;;;5004265;28;20215;-53
2023/01/07 00:06:48;;;;;;;760.03;319.53;;;;;;;;;;4985976;28;20646;-55
2023/01/07 00:09:19;;;;;;;769.50;316.47;;;;;;;;;;4981026;28;20273;-55
2023/01/07 00:11:47;;;;;;;808.17;340.53;;;;;;;;;;4992953;28;20212;-53
2023/01/07 00:14:13;;;;;;;666.37;275.40;;;;;;;;;;5007597;28;20795;-52
2023/01/07 00:16:40;;;;;;;804.10;334.80;;;;;;;;;;5006819;28;20209;-55
2023/01/07 00:19:08;;;;;;;766.53;324.53;;;;;;;;;;4999905;28;20187;-54
2023/01/07 00:21:34;;;;;;;685.30;279.33;;;;;;;;;;4987408;28;20221;-53
2023/01/07 00:24:02;;;;;;;721.90;299.70;;;;;;;;;;4989459;28;20313;-54
2023/01/07 00:26:33;;;;;;;812.90;329.03;;;;;;;;;;5011606;28;20347;-53
2023/01/07 00:28:59;;;;;;;652.90;272.53;;;;;;;;;;5011905;28;20597;-53
2023/01/07 00:31:27;;;;;;;732.90;314.87;;;;;;;;;;4998792;28;20931;-54
2023/01/07 00:36:33;;;;;;;837.33;351.93;;;;;;;;;;4987927;28;20231;-54
2023/01/07 00:39:05;;;;;;;814.13;344.27;;;;;;;;;;4969522;28;20279;-54
2023/01/07 00:41:31;;;;;;;739.23;306.70;;;;;;;;;;4989028;28;20236;-54
2023/01/07 00:43:58;;;;;;;632.57;267.83;;;;;;;;;;4990645;28;20233;-54
2023/01/07 00:46:25;;;;;;;850.03;366.50;;;;;;;;;;4986259;28;20256;-55
2023/01/07 00:48:52;;;;;;;814.23;343.77;;;;;;;;;;4980350;28;21240;-55
2023/01/07 00:51:22;;;;;;;675.43;268.40;;;;;;;;;;5000525;28;20283;-53
2023/01/07 00:53:55;;;;;;;790.00;343.97;;;;;;;;;;4997592;28;20523;-54
2023/01/07 00:56:22;;;;;;;827.50;350.67;;;;;;;;;;4986033;28;20906;-53
2023/01/07 00:58:48;;;;;;;795.50;333.70;;;;;;;;;;4997434;28;20234;-54
2023/01/07 01:01:14;;;;;;;796.50;341.73;;;;;;;;;;4988982;28;20234;-53
2023/01/07 01:03:41;;;;;;;871.90;378.50;;;;;;;;;;4978768;28;20732;-57
2023/01/07 01:06:12;;;;;;;767.50;309.10;;;;;;;;;;4991326;28;20207;-55
2023/01/07 01:08:40;;;;;;;702.73;296.47;;;;;;;;;;4997407;28;20292;-55
2023/01/07 01:11:07;;;;;;;717.87;296.73;;;;;;;;;;4981035;28;21490;-55
2023/01/07 01:13:36;;;;;;;791.33;341.83;;;;;;;;;;5000204;28;20271;-54
2023/01/07 01:16:06;;;;;;;765.53;315.77;;;;;;;;;;4998504;28;20598;-55
2023/01/07 01:18:35;;;;;;;848.80;349.57;;;;;;;;;;4992653;28;20216;-52
2023/01/07 01:21:10;;;;;;;656.13;262.47;;;;;;;;;;5004172;28;20263;-54
2023/01/07 01:23:36;;;;;;;853.10;371.10;;;;;;;;;;4990662;28;20674;-54
2023/01/07 01:26:06;;;;;;;746.40;309.43;;;;;;;;;;4974625;28;20758;-54
2023/01/07 01:28:33;;;;;;;762.07;317.57;;;;;;;;;;4988637;28;20216;-54
2023/01/07 01:31:03;;;;;;;847.80;346.60;;;;;;;;;;4986771;28;20231;-53
2023/01/07 01:33:33;;;;;;;796.47;344.70;;;;;;;;;;4991194;28;20212;-54
2023/01/07 01:36:02;;;;;;;792.10;331.03;;;;;;;;;;5000681;28;20318;-53
2023/01/07 01:38:31;;;;;;;784.20;317.43;;;;;;;;;;5010908;28;20947;-54
2023/01/07 01:40:58;;;;;;;862.43;368.47;;;;;;;;;;4991542;28;20208;-52
2023/01/07 01:43:39;;;;;;;651.70;275.73;;;;;;;;;;4994335;28;20191;-54
2023/01/07 01:46:14;;;;;;;725.23;306.93;;;;;;;;;;5005435;28;20318;-55
2023/01/07 01:48:51;;;;;;;784.67;339.67;;;;;;;;;;4986508;28;20448;-55
2023/01/07 01:51:20;;;;;;;779.93;330.20;;;;;;;;;;4988776;28;20337;-55
2023/01/07 01:53:49;;;;;;;841.17;364.60;;;;;;;;;;4986526;28;20264;-54
2023/01/07 01:56:18;;;;;;;719.93;313.03;;;;;;;;;;4979572;28;20679;-54
2023/01/07 01:58:51;;;;;;;808.63;343.33;;;;;;;;;;4974249;28;20750;-55
2023/01/07 02:01:18;;;;;;;851.97;363.87;;;;;;;;;;5005004;28;20372;-52
2023/01/07 02:03:47;;;;;;;878.27;386.53;;;;;;;;;;4969847;28;20754;-53
2023/01/07 02:06:18;;;;;;;795.27;333.60;;;;;;;;;;4988554;28;20344;-53
2023/01/07 02:08:44;;;;;;;668.00;287.83;;;;;;;;;;4983692;28;20228;-55
2023/01/07 02:11:26;;;;;;;859.40;364.60;;;;;;;;;;4980734;28;20224;-54
2023/01/07 02:14:03;;;;;;;758.97;305.93;;;;;;;;;;5001902;28;20185;-54
2023/01/07 02:16:35;;;;;;;732.37;314.87;;;;;;;;;;4995098;28;20212;-54
2023/01/07 02:19:07;;;;;;;709.43;281.40;;;;;;;;;;4970813;28;20334;-54
2023/01/07 02:21:34;;;;;;;775.30;322.33;;;;;;;;;;4979571;28;20277;-54
2023/01/07 02:24:18;;;;;;;729.83;292.40;;;;;;;;;;4985011;28;20722;-54
2023/01/07 02:26:48;;;;;;;807.93;324.90;;;;;;;;;;4986280;28;20219;-54
2023/01/07 02:29:48;;;;;;;716.77;298.00;;;;;;;;;;4989593;28;20301;-53
2023/01/07 02:32:24;;;;;;;711.97;291.10;;;;;;;;;;4966600;28;20236;-53
2023/01/07 02:35:03;;;;;;;775.10;321.93;;;;;;;;;;4974646;28;20180;-53
2023/01/07 02:37:35;;;;;;;749.90;304.37;;;;;;;;;;4994381;28;20172;-54
2023/01/07 02:40:10;;;;;;;736.17;295.53;;;;;;;;;;4989194;28;20604;-53
2023/01/07 02:42:45;;;;;;;863.93;366.53;;;;;;;;;;4985196;28;20227;-54
2023/01/07 02:45:18;;;;;;;897.03;384.83;;;;;;;;;;4983708;28;20228;-55
2023/01/07 02:47:48;;;;;;;753.40;310.60;;;;;;;;;;4990211;28;20367;-55
2023/01/07 02:50:16;;;;;;;735.33;306.60;;;;;;;;;;4992080;28;20357;-52
2023/01/07 02:52:43;;;;;;;829.40;351.67;;;;;;;;;;4991391;28;20180;-55
2023/01/07 02:55:20;;;;;;;791.93;324.10;;;;;;;;;;4975582;28;20254;-54
2023/01/07 02:57:47;;;;;;;780.97;330.87;;;;;;;;;;4985252;28;20258;-54
2023/01/07 03:00:13;;;;;;;765.20;327.17;;;;;;;;;;4979945;28;20223;-52
2023/01/07 03:03:01;;;;;;;760.17;323.17;;;;;;;;;;4982490;28;20638;-53
2023/01/07 03:05:43;;;;;;;824.80;332.43;;;;;;;;;;4997680;28;20224;-54
2023/01/07 03:08:28;;;;;;;755.67;307.00;;;;;;;;;;4998067;28;20223;-53
2023/01/07 03:11:02;;;;;;;713.77;285.23;;;;;;;;;;5025382;28;20227;-53
2023/01/07 03:13:37;;;;;;;771.23;314.50;;;;;;;;;;5003693;28;20275;-53
2023/01/07 03:16:04;;;;;;;920.87;376.57;;;;;;;;;;4957574;28;20315;-52
2023/01/07 03:18:33;;;;;;;760.67;314.80;;;;;;;;;;4987739;28;20705;-54
2023/01/07 03:21:05;;;;;;;703.53;276.60;;;;;;;;;;5008766;28;20247;-53
2023/01/07 03:23:33;;;;;;;763.30;319.43;;;;;;;;;;4992492;28;20600;-54
2023/01/07 03:26:02;;;;;;;834.57;359.17;;;;;;;;;;4993882;28;20478;-52
2023/01/07 03:28:31;;;;;;;731.30;316.33;;;;;;;;;;5003456;28;20208;-54
2023/01/07 03:30:59;;;;;;;741.93;308.77;;;;;;;;;;5004238;28;20422;-56
2023/01/07 03:33:32;;;;;;;627.63;257.60;;;;;;;;;;4996719;28;20690;-54
2023/01/07 03:35:59;;;;;;;780.17;337.33;;;;;;;;;;4981635;28;20822;-53
2023/01/07 03:38:26;;;;;;;727.87;296.63;;;;;;;;;;4977613;28;20441;-55
2023/01/07 03:40:54;;;;;;;762.10;319.67;;;;;;;;;;4986697;28;20208;-55
2023/01/07 03:43:22;;;;;;;768.17;330.93;;;;;;;;;;4999055;28;20191;-55
2023/01/07 03:45:52;;;;;;;675.50;284.87;;;;;;;;;;4993145;28;20258;-54
2023/01/07 03:48:19;;;;;;;711.83;298.70;;;;;;;;;;4990697;28;20306;-53
2023/01/07 03:50:45;;;;;;;897.67;378.60;;;;;;;;;;5000009;28;20246;-54
2023/01/07 03:53:12;;;;;;;865.57;369.63;;;;;;;;;;4984678;28;20207;-55
2023/01/07 03:55:38;;;;;;;770.10;325.37;;;;;;;;;;4985007;28;20191;-55
2023/01/07 03:58:04;;;;;;;706.63;286.20;;;;;;;;;;4994031;28;20573;-55
2023/01/07 04:00:31;;;;;;;717.33;294.47;;;;;;;;;;4975133;28;20242;-52
2023/01/07 04:02:57;;;;;;;697.47;298.10;;;;;;;;;;4987444;28;20212;-55
2023/01/07 04:05:23;;;;;;;743.47;302.70;;;;;;;;;;4990084;28;20211;-53
2023/01/07 04:07:50;;;;;;;697.13;294.20;;;;;;;;;;4991794;28;20722;-54
2023/01/07 04:10:16;;;;;;;737.80;302.37;;;;;;;;;;4977206;28;20204;-52
2023/01/07 04:12:42;;;;;;;787.13;330.13;;;;;;;;;;4991642;28;20302;-55
2023/01/07 04:15:09;;;;;;;755.73;324.53;;;;;;;;;;4976351;28;20343;-53
2023/01/07 04:17:39;;;;;;;730.67;291.67;;;;;;;;;;4990609;28;20223;-53
2023/01/07 04:20:06;;;;;;;837.47;364.60;;;;;;;;;;4977868;28;20937;-53
2023/01/07 04:22:33;;;;;;;780.77;324.17;;;;;;;;;;4977133;28;20242;-54
2023/01/07 04:25:01;;;;;;;820.03;344.73;;;;;;;;;;4963841;28;21720;-53
2023/01/07 04:27:29;;;;;;;688.27;282.70;;;;;;;;;;4982434;28;20247;-54
2023/01/07 04:29:55;;;;;;;779.77;334.10;;;;;;;;;;4980567;28;20260;-54
2023/01/07 04:32:24;;;;;;;859.57;370.70;;;;;;;;;;4977096;28;20932;-54
2023/01/07 04:34:51;;;;;;;742.43;302.87;;;;;;;;;;4980800;28;20434;-54
2023/01/07 04:37:18;;;;;;;727.03;300.27;;;;;;;;;;4985974;28;20251;-53
2023/01/07 04:39:45;;;;;;;789.17;336.90;;;;;;;;;;4981664;28;20435;-53
2023/01/07 04:42:11;;;;;;;731.80;318.13;;;;;;;;;;4981554;28;20417;-52
2023/01/07 04:44:38;;;;;;;835.50;337.40;;;;;;;;;;4992468;28;20486;-53
2023/01/07 04:47:04;;;;;;;786.43;332.87;;;;;;;;;;4969726;28;20761;-53
2023/01/07 04:49:31;;;;;;;682.43;292.50;;;;;;;;;;4995959;28;20177;-53
2023/01/07 04:51:57;;;;;;;658.20;280.30;;;;;;;;;;4983145;28;20223;-52
2023/01/07 04:54:23;;;;;;;704.77;297.33;;;;;;;;;;4984255;28;20234;-52
2023/01/07 04:56:50;;;;;;;775.07;332.40;;;;;;;;;;4985908;28;20352;-52
2023/01/07 04:59:16;;;;;;;656.43;288.30;;;;;;;;;;4980505;28;20205;-53
2023/01/07 05:01:43;;;;;;;715.03;312.30;;;;;;;;;;4982972;28;20208;-52
2023/01/07 05:04:10;;;;;;;706.97;286.90;;;;;;;;;;4986872;28;20337;-53
2023/01/07 05:06:36;;;;;;;742.93;306.37;;;;;;;;;;4979805;28;20851;-52
2023/01/07 05:09:03;;;;;;;684.73;278.73;;;;;;;;;;4985584;28;20875;-53
2023/01/07 05:11:29;;;;;;;752.93;311.97;;;;;;;;;;4979789;28;20228;-52
2023/01/07 05:13:58;;;;;;;798.77;345.40;;;;;;;;;;4984719;28;20297;-53
2023/01/07 05:16:25;;;;;;;660.97;284.00;;;;;;;;;;4991963;28;20554;-53
2023/01/07 05:18:52;;;;;;;857.70;365.57;;;;;;;;;;4982856;28;20272;-53
2023/01/07 05:21:18;;;;;;;815.27;348.10;;;;;;;;;;4980184;28;20787;-53
2023/01/07 05:23:45;;;;;;;731.53;323.37;;;;;;;;;;4981769;28;20306;-53
2023/01/07 05:26:11;;;;;;;745.57;327.50;;;;;;;;;;4988266;28;20304;-55
2023/01/07 05:28:38;;;;;;;763.50;320.20;;;;;;;;;;4979043;28;20550;-53
2023/01/07 05:33:37;;;;;;;482.77;211.03;;;;;;;;;;5060753;28;20239;-50
2023/01/07 05:36:04;;;;;;;601.00;260.10;;;;;;;;;;5064108;28;20249;-49
2023/01/07 05:38:30;;;;;;;502.87;217.10;;;;;;;;;;5029153;28;20282;-50
2023/01/07 05:40:57;;;;;;;547.90;240.73;;;;;;;;;;5045969;28;20293;-50
2023/01/07 05:43:23;;;;;;;489.63;213.37;;;;;;;;;;5064180;28;20179;-51
2023/01/07 05:45:50;;;;;;;469.03;207.37;;;;;;;;;;5052130;28;20632;-50
2023/01/07 05:48:16;;;;;;;448.73;196.03;;;;;;;;;;5050297;28;20402;-50
2023/01/07 05:50:42;;;;;;;556.20;242.73;;;;;;;;;;5084871;28;20253;-49
2023/01/07 05:53:09;;;;;;;573.63;250.83;;;;;;;;;;5081025;28;20214;-50
2023/01/07 05:55:37;;;;;;;508.03;224.20;;;;;;;;;;5047459;28;20526;-49
2023/01/07 05:58:03;;;;;;;547.43;243.23;;;;;;;;;;5084434;28;20658;-50
2023/01/07 06:00:30;;;;;;;492.63;214.00;;;;;;;;;;5084009;28;20217;-50
2023/01/07 06:02:57;;;;;;;542.70;241.57;;;;;;;;;;5083787;28;20257;-50
2023/01/07 06:05:23;;;;;;;500.70;219.67;;;;;;;;;;5084721;28;20297;-51
2023/01/07 06:07:50;;;;;;;487.73;214.87;;;;;;;;;;5083070;28;20190;-50
2023/01/07 06:10:17;;;;;;;541.33;243.07;;;;;;;;;;5084985;28;20178;-50
2023/01/07 06:12:43;;;;;;;478.47;216.00;;;;;;;;;;5082766;28;20600;-50
2023/01/07 06:15:10;;;;;;;486.03;217.93;;;;;;;;;;5083172;28;20743;-50
2023/01/07 06:17:36;;;;;;;490.77;220.93;;;;;;;;;;5063867;28;20271;-51
2023/01/07 06:20:06;;;;;;;543.57;239.70;;;;;;;;;;5064870;28;20221;-49
2023/01/07 06:22:32;;;;;;;470.47;199.73;;;;;;;;;;5066841;28;20175;-50
2023/01/07 06:24:58;;;;;;;533.10;235.27;;;;;;;;;;5084051;28;20213;-50
2023/01/07 06:27:25;;;;;;;484.80;212.30;;;;;;;;;;5082881;28;20679;-51
2023/01/07 06:29:54;;;;;;;499.40;224.23;;;;;;;;;;5048030;28;20225;-50
2023/01/07 06:32:21;;;;;;;497.63;216.93;;;;;;;;;;5064769;28;20528;-51
2023/01/07 06:34:47;;;;;;;508.53;227.27;;;;;;;;;;5080931;28;20378;-51
2023/01/07 06:37:13;;;;;;;478.03;206.70;;;;;;;;;;5065440;28;20811;-51
2023/01/07 06:39:40;;;;;;;470.70;201.97;;;;;;;;;;5048473;28;20345;-50
2023/01/07 06:42:06;;;;;;;471.63;202.17;;;;;;;;;;5062813;28;20230;-51
2023/01/07 06:44:33;;;;;;;486.10;218.07;;;;;;;;;;5082370;28;20278;-50
2023/01/07 06:47:04;;;;;;;568.23;255.00;;;;;;;;;;5026791;28;20235;-49
2023/01/07 06:49:32;;;;;;;679.60;302.57;;;;;;;;;;5024572;28;20192;-53
2023/01/07 06:52:04;;;;;;;591.17;260.33;;;;;;;;;;5047378;28;21489;-49
2023/01/07 06:54:31;;;;;;;641.90;286.07;;;;;;;;;;5016638;28;20215;-55
2023/01/07 06:56:58;;;;;;;677.13;297.43;;;;;;;;;;5029302;28;20241;-56
2023/01/07 06:59:25;;;;;;;556.97;253.40;;;;;;;;;;5018434;28;20303;-52
2023/01/07 07:01:56;;;;;;;663.30;302.50;;;;;;;;;;5038185;28;22995;-53
2023/01/07 07:04:22;;;;;;;679.93;307.87;;;;;;;;;;4998439;28;20569;-52
2023/01/07 07:06:48;;;;;;;681.47;312.87;;;;;;;;;;5023537;28;20750;-57
2023/01/07 07:09:16;;;;;;;645.93;290.50;;;;;;;;;;5027979;28;20231;-52
2023/01/07 07:11:42;;;;;;;629.40;276.83;;;;;;;;;;5021876;28;20242;-52
2023/01/07 07:14:09;;;;;;;645.30;279.87;;;;;;;;;;5058356;28;20252;-52
2023/01/07 07:16:35;;;;;;;534.40;230.43;;;;;;;;;;5050213;28;20734;-51
2023/01/07 07:19:02;;;;;;;573.33;243.30;;;;;;;;;;5056281;28;20229;-51
2023/01/07 07:21:28;;;;;;;577.90;243.50;;;;;;;;;;5058500;28;20544;-53
2023/01/07 07:23:55;;;;;;;632.30;281.37;;;;;;;;;;5058908;28;20268;-52
2023/01/07 07:26:24;;;;;;;660.23;290.50;;;;;;;;;;5016130;28;20287;-50
2023/01/07 07:28:50;;;;;;;661.93;292.87;;;;;;;;;;5040368;28;20198;-51
2023/01/07 07:31:17;;;;;;;623.47;276.73;;;;;;;;;;5039708;28;20252;-52
2023/01/07 07:33:43;;;;;;;570.70;249.37;;;;;;;;;;5057748;28;20510;-51
2023/01/07 07:36:10;;;;;;;676.30;296.53;;;;;;;;;;5057075;28;20740;-52
2023/01/07 07:38:36;;;;;;;575.80;250.63;;;;;;;;;;5023291;28;20268;-52
2023/01/07 07:41:02;;;;;;;534.90;232.77;;;;;;;;;;5057613;28;20214;-53
2023/01/07 07:43:28;;;;;;;660.67;296.30;;;;;;;;;;5059232;28;20583;-52
2023/01/07 07:45:55;;;;;;;681.60;300.90;;;;;;;;;;5038276;28;20735;-52
2023/01/07 07:48:21;;;;;;;605.87;264.57;;;;;;;;;;5058951;28;20237;-53
2023/01/07 07:50:50;;;;;;;650.83;285.23;;;;;;;;;;5039069;28;20301;-52
2023/01/07 07:53:17;;;;;;;657.97;288.10;;;;;;;;;;5038631;28;20436;-52
2023/01/07 07:55:43;;;;;;;588.37;257.70;;;;;;;;;;5040645;28;20262;-52
2023/01/07 07:58:09;;;;;;;553.23;244.17;;;;;;;;;;5059729;28;20226;-52
2023/01/07 08:00:36;;;;;;;557.97;246.60;;;;;;;;;;5058793;28;20222;-52
2023/01/07 08:03:03;;;;;;;655.50;295.33;;;;;;;;;;5020627;28;20234;-52
2023/01/07 08:05:29;;;;;;;562.27;237.83;;;;;;;;;;5040096;28;20270;-52
2023/01/07 08:07:57;;;;;;;681.97;306.93;;;;;;;;;;5021058;28;20300;-51
2023/01/07 08:10:27;;;;;;;567.87;241.93;;;;;;;;;;5039357;28;20202;-52
2023/01/07 08:12:54;;;;;;;582.67;256.00;;;;;;;;;;5058416;28;20222;-52
2023/01/07 08:15:20;;;;;;;666.57;297.77;;;;;;;;;;5033239;28;20256;-54
2023/01/07 08:17:47;;;;;;;606.03;255.77;;;;;;;;;;5026865;28;20203;-53
2023/01/07 08:20:17;;;;;;;683.00;287.30;;;;;;;;;;5082232;22;20301;-74
2023/01/07 08:22:47;;;;;;;596.70;258.07;;;;;;;;;;4995187;28;20936;-71
2023/01/07 08:25:19;;;;;;;662.43;297.47;;;;;;;;;;5025060;28;20192;-75
2023/01/07 08:27:54;;;;;;;588.37;260.43;;;;;;;;;;5018248;28;20215;-71
2023/01/07 08:30:21;;;;;;;641.77;288.00;;;;;;;;;;5029578;28;20214;-71
2023/01/07 08:32:51;;;;;;;575.77;257.87;;;;;;;;;;5032120;28;20693;-75
2023/01/07 08:35:19;;;;;;;688.80;316.38;;;;;;;;;;5035420;28;20428;-72
2023/01/07 08:37:45;;;;;;;595.13;274.27;;;;;;;;;;5029545;28;20176;-74
2023/01/07 08:40:14;;;;;;;710.23;325.73;;;;;;;;;;5033380;28;20222;-77
2023/01/07 08:42:44;;;;;;;608.37;266.77;;;;;;;;;;5014684;28;20722;-77
2023/01/07 08:45:15;;;;;;;656.30;285.33;;;;;;;;;;5006861;28;20207;-75
2023/01/07 08:47:41;;;;;;;521.73;220.10;;;;;;;;;;5038391;28;20699;-64
2023/01/07 08:50:07;;;;;;;511.10;220.37;;;;;;;;;;5042757;28;20230;-73
2023/01/07 08:52:33;;;;;;;601.10;270.53;;;;;;;;;;5034510;28;20567;-67
2023/01/07 08:55:00;;;;;;;558.87;235.43;;;;;;;;;;5016762;28;20223;-72
2023/01/07 08:57:26;;;;;;;592.13;256.20;;;;;;;;;;5041227;28;20227;-73
2023/01/07 08:59:56;;;;;;;512.77;224.93;;;;;;;;;;5025956;28;20219;-71
2023/01/07 09:02:25;;;;;;;596.77;265.17;;;;;;;;;;5023541;28;20303;-71
2023/01/07 09:04:53;;;;;;;491.93;220.83;;;;;;;;;;5024163;28;20636;-72
2023/01/07 09:07:22;;;;;;;592.00;260.27;;;;;;;;;;5023788;28;20241;-72
2023/01/07 09:09:51;;;;;;;595.13;264.13;;;;;;;;;;5040249;28;20314;-72
2023/01/07 09:12:20;;;;;;;615.93;269.53;;;;;;;;;;5030284;28;20304;-73
2023/01/07 09:14:49;;;;;;;512.70;220.97;;;;;;;;;;5040721;28;20670;-71
2023/01/07 09:17:21;;;;;;;593.60;268.07;;;;;;;;;;5025914;28;20635;-70
2023/01/07 09:19:50;;;;;;;618.50;277.70;;;;;;;;;;5037195;28;20276;-67
2023/01/07 09:22:23;;;;;;;572.60;255.47;;;;;;;;;;5042180;28;20225;-67
2023/01/07 09:24:51;;;;;;;583.37;251.93;;;;;;;;;;5029460;28;20284;-69
2023/01/07 09:27:21;;;;;;;573.33;253.00;;;;;;;;;;5024014;28;20226;-70
2023/01/07 09:29:47;;;;;;;635.70;281.10;;;;;;;;;;5019998;28;20376;-69
2023/01/07 09:32:17;;;;;;;589.30;252.83;;;;;;;;;;5044042;28;20278;-68
2023/01/07 09:34:43;;;;;;;671.83;305.57;;;;;;;;;;5029467;28;20212;-71
2023/01/07 09:37:24;;;;;;;579.97;260.20;;;;;;;;;;5034929;28;20259;-68
2023/01/07 09:39:56;;;;;;;630.90;279.50;;;;;;;;;;4995721;28;20286;-68
2023/01/07 09:42:47;;;;;;;645.63;286.27;;;;;;;;;;5024604;28;20655;-69
2023/01/07 09:45:16;;;;;;;634.77;278.33;;;;;;;;;;5001812;28;20264;-70
2023/01/07 09:47:45;;;;;;;653.83;276.67;;;;;;;;;;5017895;28;20216;-69
2023/01/07 09:50:14;;;;;;;685.67;298.70;;;;;;;;;;5012957;28;20245;-71
2023/01/07 09:52:47;;;;;;;750.37;334.80;;;;;;;;;;5005156;28;20253;-72
2023/01/07 09:55:22;;;;;;;709.17;321.67;;;;;;;;;;5043573;28;20261;-72
2023/01/07 09:57:52;;;;;;;679.57;310.60;;;;;;;;;;5043740;28;20602;-72
2023/01/07 10:00:20;;;;;;;701.00;319.33;;;;;;;;;;5023693;28;20222;-72
2023/01/07 10:03:14;;;;;;;740.07;317.33;;;;;;;;;;5035576;28;22841;-72
2023/01/07 10:06:00;;;;;;;683.97;305.23;;;;;;;;;;5029310;28;20219;-70
2023/01/07 10:08:43;;;;;;;605.33;270.57;;;;;;;;;;5002777;28;20284;-70
2023/01/07 10:11:36;;;;;;;697.33;315.53;;;;;;;;;;5052246;28;20297;-70
2023/01/07 10:14:05;;;;;;;660.80;292.73;;;;;;;;;;5033458;28;20591;-69
2023/01/07 10:17:01;;;;;;;730.03;333.27;;;;;;;;;;5023527;28;20227;-70
2023/01/07 10:19:55;;;;;;;643.70;296.70;;;;;;;;;;5005514;28;20203;-74
2023/01/07 10:22:25;;;;;;;598.90;266.10;;;;;;;;;;4977327;28;20272;-67
2023/01/07 10:25:03;;;;;;;643.10;279.67;;;;;;;;;;5001688;28;20207;-73
2023/01/07 10:27:41;;;;;;;655.20;284.43;;;;;;;;;;5010190;28;20351;-78
2023/01/07 10:30:18;;;;;;;769.80;350.90;;;;;;;;;;4977647;28;20207;-79
2023/01/07 10:32:51;;;;;;;627.30;277.97;;;;;;;;;;4997798;28;20272;-70
2023/01/07 10:35:20;;;;;;;312.83;141.13;;;;;;;;;;5011061;28;20212;-70
2023/01/07 10:37:46;;;;;;;389.17;178.97;;;;;;;;;;5004656;28;20184;-69
2023/01/07 10:40:12;;;;;;;293.77;132.80;;;;;;;;;;5021990;28;20480;-69
2023/01/07 10:42:56;;;;;;;295.23;133.23;;;;;;;;;;5024594;28;20274;-69
2023/01/07 10:45:34;;;;;;;314.73;144.37;;;;;;;;;;5023076;28;20595;-69
2023/01/07 10:48:16;;;;;;;300.50;138.67;;;;;;;;;;5021218;28;20215;-69
2023/01/07 10:50:48;;;;;;;321.30;150.23;;;;;;;;;;5019069;28;20300;-69
2023/01/07 10:53:23;;;;;;;311.83;144.23;;;;;;;;;;5029228;28;20211;-69
2023/01/07 10:56:07;;;;;;;306.60;140.90;;;;;;;;;;5062963;28;20171;-69
2023/01/07 10:58:41;;;;;;;372.50;171.87;;;;;;;;;;5058629;28;20189;-69
2023/01/07 11:01:08;;;;;;;296.47;131.67;;;;;;;;;;5049741;28;20171;-69
2023/01/07 11:03:34;;;;;;;347.83;156.17;;;;;;;;;;5065003;28;20276;-69
2023/01/07 11:06:03;;;;;;;335.20;145.13;;;;;;;;;;5043810;28;20218;-69
2023/01/07 11:08:35;;;;;;;325.20;143.00;;;;;;;;;;5066947;28;20269;-69
2023/01/07 11:11:03;;;;;;;339.93;149.93;;;;;;;;;;5060723;28;20292;-69
2023/01/07 11:13:30;;;;;;;353.73;156.27;;;;;;;;;;5067784;28;20385;-69
2023/01/07 11:15:58;;;;;;;329.27;141.90;;;;;;;;;;5064067;28;20268;-69
2023/01/07 11:18:38;;;;;;;336.67;145.83;;;;;;;;;;5064675;28;20286;-69
2023/01/07 11:21:03;;;;;;;334.77;144.93;;;;;;;;;;5060748;28;20652;-69
2023/01/07 11:23:36;;;;;;;356.50;157.50;;;;;;;;;;5066020;28;20309;-69
2023/01/07 11:26:08;;;;;;;340.77;149.57;;;;;;;;;;5061906;28;20688;-69
2023/01/07 11:28:34;;;;;;;344.27;152.57;;;;;;;;;;5061511;28;20241;-70
2023/01/07 11:31:01;;;;;;;337.63;148.77;;;;;;;;;;5066669;28;20259;-69
2023/01/07 11:33:31;;;;;;;387.00;163.93;;;;;;;;;;5085780;22;20225;-76
2023/01/07 11:35:57;;;;;;;340.60;143.87;;;;;;;;;;5040254;28;20275;-75
2023/01/07 11:38:27;;;;;;;310.10;130.50;;;;;;;;;;5046151;28;20210;-76
2023/01/07 11:40:57;;;;;;;315.60;132.57;;;;;;;;;;5063273;28;20722;-75
2023/01/07 11:43:24;;;;;;;586.17;235.47;;;;;;;;;;5033938;28;20199;-74
2023/01/07 11:45:50;;;;;;;787.70;336.80;;;;;;;;;;5021159;22;20335;-56
2023/01/07 11:48:25;;;;;;;882.93;387.47;;;;;;;;;;4956815;28;20253;-55
2023/01/07 11:50:53;;;;;;;924.77;404.73;;;;;;;;;;4949945;28;21460;-55
2023/01/07 11:53:29;;;;;;;818.50;356.33;;;;;;;;;;4952632;28;20240;-54
2023/01/07 11:56:05;;;;;;;802.07;347.20;;;;;;;;;;4948068;28;20219;-55
2023/01/07 11:58:38;;;;;;;781.67;334.27;;;;;;;;;;4980808;28;20198;-56
2023/01/07 12:01:10;;;;;;;763.63;321.43;;;;;;;;;;4984757;28;20216;-55
2023/01/07 12:03:42;;;;;;;841.43;358.73;;;;;;;;;;4974652;28;20626;-55
2023/01/07 12:06:14;;;;;;;721.67;302.03;;;;;;;;;;4959106;28;20291;-54
2023/01/07 12:08:42;;;;;;;669.70;277.40;;;;;;;;;;4989988;28;20274;-55
2023/01/07 12:11:13;;;;;;;655.03;272.10;;;;;;;;;;4987779;28;20223;-55
2023/01/07 12:13:40;;;;;;;632.10;270.43;;;;;;;;;;4992144;28;20325;-54
2023/01/07 12:16:07;;;;;;;661.43;275.60;;;;;;;;;;5008894;28;20862;-54
2023/01/07 12:18:36;;;;;;;664.57;269.07;;;;;;;;;;4985042;28;20274;-55
2023/01/07 12:21:21;;;;;;;719.10;290.60;;;;;;;;;;4991337;28;20222;-55
2023/01/07 12:23:54;;;;;;;638.37;266.83;;;;;;;;;;5009734;28;20571;-56
2023/01/07 12:26:32;;;;;;;671.10;297.37;;;;;;;;;;5006082;28;20311;-56
2023/01/07 12:29:04;;;;;;;576.17;243.47;;;;;;;;;;5013059;28;20253;-55
2023/01/07 12:31:36;;;;;;;545.20;243.50;;;;;;;;;;5015561;28;20358;-56
2023/01/07 12:34:06;;;;;;;665.10;288.10;;;;;;;;;;5006534;28;20226;-55
2023/01/07 12:36:35;;;;;;;713.83;293.97;;;;;;;;;;4985164;28;20310;-55
2023/01/07 12:39:02;;;;;;;717.13;304.47;;;;;;;;;;4996696;28;20447;-56
2023/01/07 12:41:31;;;;;;;665.57;280.53;;;;;;;;;;5002266;28;20221;-56
2023/01/07 12:44:02;;;;;;;611.77;272.50;;;;;;;;;;5007503;28;20219;-53
2023/01/07 12:46:31;;;;;;;715.20;310.97;;;;;;;;;;5006806;28;20208;-55
2023/01/07 12:49:03;;;;;;;722.40;335.03;;;;;;;;;;4994779;28;20216;-56
2023/01/07 12:51:32;;;;;;;650.80;302.70;;;;;;;;;;4994694;28;20227;-56
2023/01/07 12:54:03;;;;;;;628.10;294.73;;;;;;;;;;4997600;28;20241;-55
2023/01/07 12:56:35;;;;;;;721.40;342.33;;;;;;;;;;5003000;28;20215;-56
2023/01/07 12:59:24;;;;;;;725.50;332.53;;;;;;;;;;5016082;28;20701;-55
2023/01/07 13:02:09;;;;;;;656.72;307.30;;;;;;;;;;5002683;28;21183;-56
2023/01/07 13:04:35;;;;;;;719.28;343.58;;;;;;;;;;4988237;28;20188;-56
2023/01/07 13:07:23;;;;;;;693.17;340.33;;;;;;;;;;5007866;28;20262;-56
2023/01/07 13:09:49;;;;;;;745.92;353.73;;;;;;;;;;5009384;28;20216;-55
2023/01/07 13:12:47;;;;;;;716.67;359.55;;;;;;;;;;5008815;28;20447;-56
2023/01/07 13:15:21;;;;;;;817.38;412.15;;;;;;;;;;5002543;28;20710;-56
2023/01/07 13:17:52;;;;;;;792.25;399.17;;;;;;;;;;5008601;28;20252;-57
2023/01/07 13:20:25;;;;;;;778.33;394.38;;;;;;;;;;5008150;28;21638;-56
2023/01/07 13:22:53;;;;;;;732.08;380.25;;;;;;;;;;5009844;28;20548;-57
2023/01/07 13:25:32;;;;;;;748.85;381.63;;;;;;;;;;5008474;28;21387;-56
2023/01/07 13:28:17;;;;;;;669.83;349.67;;;;;;;;;;5009654;28;20235;-55
2023/01/07 13:30:53;;;;;;;854.38;422.58;;;;;;;;;;5005793;28;20218;-57
2023/01/07 13:33:19;;;;;;;849.50;403.83;;;;;;;;;;5009599;28;20215;-55
2023/01/07 13:35:52;;;;;;;850.95;415.65;;;;;;;;;;5000860;28;20244;-56
2023/01/07 13:38:30;;;;;;;781.53;375.10;;;;;;;;;;4985497;28;20562;-56
2023/01/07 13:41:08;;;;;;;698.90;331.93;;;;;;;;;;5007856;28;20243;-56
2023/01/07 13:43:53;;;;;;;760.93;344.60;;;;;;;;;;5006701;28;20211;-56
2023/01/07 13:46:22;;;;;;;709.57;331.20;;;;;;;;;;5010833;28;20619;-56
2023/01/07 13:48:52;;;;;;;749.55;346.35;;;;;;;;;;5007796;28;20315;-55
2023/01/07 13:51:44;;;;;;;756.50;369.75;;;;;;;;;;4995734;28;20220;-55
2023/01/07 13:54:10;;;;;;;743.53;344.08;;;;;;;;;;4999644;28;20305;-55
2023/01/07 13:56:37;;;;;;;735.97;351.00;;;;;;;;;;4978165;28;20216;-55
2023/01/07 13:59:04;;;;;;;771.28;369.70;;;;;;;;;;5004047;28;20222;-55
2023/01/07 14:01:32;;;;;;;728.05;344.13;;;;;;;;;;4996066;28;20201;-55
2023/01/07 14:04:05;;;;;;;707.77;323.17;;;;;;;;;;5003695;28;20227;-55
2023/01/07 14:06:37;;;;;;;654.53;311.33;;;;;;;;;;4967652;28;20215;-56
2023/01/07 14:09:06;;;;;;;781.80;365.87;;;;;;;;;;4988715;28;20244;-56
2023/01/07 14:11:32;;;;;;;662.60;302.20;;;;;;;;;;4993439;28;20508;-56
2023/01/07 14:14:07;;;;;;;712.70;307.60;;;;;;;;;;4978629;28;20306;-56